SFS weather

Subic Bay International Airport
Olongapo City, Zambales Province, Philippines

Public forecast

Using degrees Celsius for public forecast. Weather courtesy of forecast.io.

METAR (pilot weather report)

Retrieved 2019/03/19 03:00 UTC (56 minutes ago):

RPLB 190300Z 08018KT 9999 FEW020 SCT300 32/19 Q1014 NOSIG RMK A2994

TAF (pilot weather forecast)

Forecast is more than 12 hours old.

Retrieved 2019/03/18 00:00 UTC (1 day ago):

TAF RPLB 182300Z 1900/1924 06008KT 9999 FEW020 SCT300 TX33/1906Z TN24/1922Z TEMPO 1900/1906 10012KT SCT020 BKN300